tititudorancea.com
Station Historical Data
Daily Summary for February 28, 2018 Units:  Metric    English   Both
« Previous Day
Next Day »
Daily Weekly Monthly Yearly Custom
  High: Low: Average:
Temperature: -17.8 °C 14.4 °C 20.3 °C
Dew Point: -17.8 °C 5.8 °C 9.3 °C
Humidity: Humidity % 33 % 52 %
Wind Speed: 0 km/h 4.3 km/h 16.6 km/h
Wind Gust: 0 km/h - -
Wind:- - WSW
Pressure: 0 hPa 1001.6 hPa -
Precipitation: 0 mm    
Historical Graphs
 
 
Ararat weather Find more about Weather in Ararat, AU


 



 


Tabular Data for February 28, 2018
Time Temperature Dew Point Pressure Wind Wind Speed Wind Gust Humidity Rainfall Rate (Hourly)
-17.8 °C -17.8 °C 0 hPa Calm     Humidity % 0 mm
00:04 24.2 °C 8.2 °C 1006.3 hPa NNE 10.8 km/h 16.7 km/h 36 % 0 mm
00:09 24.1 °C 8.1 °C 1006.3 hPa NNE 8.4 km/h 14.8 km/h 36 % 0 mm
00:14 24 °C 8 °C 1006.3 hPa NNE 5.6 km/h 11.1 km/h 36 % 0 mm
00:19 23.9 °C 7.9 °C 1006.3 hPa NNE 5 km/h 7.4 km/h 36 % 0 mm
00:24 23.8 °C 7.8 °C 1006 hPa NNE 5.1 km/h 9.3 km/h 36 % 0 mm
00:29 23.7 °C 7.7 °C 1006 hPa NNE 5.1 km/h 9.3 km/h 36 % 0 mm
00:35 23.6 °C 8.1 °C 1006 hPa NNE 7.1 km/h 9.7 km/h 37 % 0 mm
00:40 23.6 °C 8 °C 1006 hPa NNE 6.4 km/h 9.3 km/h 37 % 0 mm
00:45 23.5 °C 7.9 °C 1006 hPa NNE 9 km/h 14.8 km/h 37 % 0 mm
00:50 23.6 °C 8 °C 1006 hPa NNE 7.2 km/h 9.3 km/h 37 % 0 mm
00:55 23.5 °C 7.9 °C 1006 hPa NNE 6.3 km/h 7.4 km/h 37 % 0 mm
01:00 23.5 °C 7.9 °C 1006 hPa NNE 6.1 km/h 9.3 km/h 37 % 0 mm
01:05 23.5 °C 7.9 °C 1006 hPa NNE 4.3 km/h 7.4 km/h 37 % 0 mm
01:10 23.4 °C 7.9 °C 1005.6 hPa NNE 5.8 km/h 9.3 km/h 37 % 0 mm
01:15 23.4 °C 7.9 °C 1005.6 hPa NNE 5.8 km/h 11.1 km/h 37 % 0 mm
01:20 23.4 °C 7.9 °C 1005.6 hPa NNE 7.6 km/h 13 km/h 37 % 0 mm
01:25 23.4 °C 7.9 °C 1005.6 hPa NNE 10.8 km/h 14.8 km/h 37 % 0 mm
01:30 23.4 °C 7.9 °C 1005.3 hPa North 10.1 km/h 17.7 km/h 37 % 0 mm
01:35 23.5 °C 7.9 °C 1005 hPa NNE 15.4 km/h 20.4 km/h 37 % 0 mm
01:40 23.6 °C 8 °C 1005 hPa NNE 12.9 km/h 18.5 km/h 37 % 0 mm
01:45 23.6 °C 8 °C 1005 hPa North 11.6 km/h 16.7 km/h 37 % 0 mm
01:50 23.6 °C 8.1 °C 1005 hPa NNE 14.5 km/h 22.2 km/h 37 % 0 mm
01:55 23.6 °C 7.7 °C 1005 hPa NNE 12.6 km/h 19.3 km/h 36 % 0 mm
02:00 23.7 °C 7.7 °C 1004.6 hPa NNE 12.7 km/h 25.9 km/h 36 % 0 mm
02:05 23.7 °C 7.7 °C 1004.6 hPa NNE 9.7 km/h 18.5 km/h 36 % 0 mm
02:10 23.6 °C 7.7 °C 1004.6 hPa North 11.9 km/h 22.5 km/h 36 % 0 mm
02:15 23.6 °C 7.6 °C 1004.6 hPa North 14.2 km/h 18.5 km/h 36 % 0 mm
02:20 23.6 °C 7.7 °C 1004.3 hPa NNE 9.3 km/h 14.8 km/h 36 % 0 mm
02:25 23.6 °C 7.7 °C 1003.9 hPa NNE 14.3 km/h 22.2 km/h 36 % 0 mm
02:30 23.7 °C 7.3 °C 1003.9 hPa North 15.9 km/h 27.8 km/h 35 % 0 mm
02:35 23.7 °C 7.3 °C 1003.9 hPa North 12.1 km/h 18.5 km/h 35 % 0 mm
02:40 23.7 °C 7.3 °C 1003.9 hPa NE 18.7 km/h 25.7 km/h 35 % 0 mm
02:45 23.7 °C 7.3 °C 1003.3 hPa NNE 18.7 km/h 27.8 km/h 35 % 0 mm
02:50 23.8 °C 6.9 °C 1003.3 hPa North 15.6 km/h 31.5 km/h 34 % 0 mm
02:55 23.9 °C 7.1 °C 1003.3 hPa NNE 15.6 km/h 18.5 km/h 34 % 0 mm
03:00 23.9 °C 7.1 °C 1003.3 hPa NE 18.8 km/h 27.8 km/h 34 % 0 mm
03:05 23.9 °C 7.1 °C 1002.9 hPa NNE 25.6 km/h 42.6 km/h 34 % 0 mm
03:10 23.8 °C 7 °C 1003.3 hPa NE 18.7 km/h 29.6 km/h 34 % 0 mm
03:15 23.8 °C 6.6 °C 1003.3 hPa North 15.1 km/h 22.2 km/h 33 % 0 mm
03:20 23.7 °C 6.9 °C 1002.9 hPa North 19.6 km/h 31.5 km/h 34 % 0 mm
03:25 23.6 °C 6.8 °C 1002.9 hPa North 12.2 km/h 18.5 km/h 34 % 0 mm
03:30 23.6 °C 6.8 °C 1002.9 hPa NNE 17.4 km/h 27.8 km/h 34 % 0 mm
03:35 23.5 °C 6.7 °C 1002.9 hPa NNE 18.7 km/h 33.8 km/h 34 % 0 mm
03:40 23.5 °C 6.3 °C 1002.9 hPa NNE 11.6 km/h 29.6 km/h 33 % 0 mm
03:45 23.5 °C 6.3 °C 1002.9 hPa North 19.8 km/h 25.9 km/h 33 % 0 mm
03:50 23.4 °C 6.2 °C 1002.9 hPa North 22 km/h 35.2 km/h 33 % 0 mm
03:55 23.4 °C 6.6 °C 1002.9 hPa North 12.6 km/h 19.3 km/h 34 % 0 mm
04:00 23.3 °C 6.6 °C 1002.6 hPa North 19.6 km/h 24.1 km/h 34 % 0 mm
04:05 23.2 °C 6.5 °C 1002.6 hPa North 13.4 km/h 18.5 km/h 34 % 0 mm
04:10 23.1 °C 6.4 °C 1002.9 hPa NNE 13.8 km/h 24.1 km/h 34 % 0 mm
04:15 23 °C 6.3 °C 1002.6 hPa North 13 km/h 16.7 km/h 34 % 0 mm
04:20 23 °C 6.3 °C 1002.6 hPa North 11.4 km/h 18.5 km/h 34 % 0 mm
04:25 22.9 °C 6.6 °C 1002.6 hPa North 14.5 km/h 20.4 km/h 35 % 0 mm
04:30 22.8 °C 6.6 °C 1002.3 hPa North 14.2 km/h 25.9 km/h 35 % 0 mm
04:35 22.8 °C 6.5 °C 1002.3 hPa NNE 11.7 km/h 20.4 km/h 35 % 0 mm
04:40 22.8 °C 6.1 °C 1001.9 hPa NNE 15 km/h 29.6 km/h 34 % 0 mm
04:45 22.8 °C 6.2 °C 1001.9 hPa NNE 18.5 km/h 37 km/h 34 % 0 mm
04:50 22.8 °C 6.1 °C 1001.9 hPa North 15.4 km/h 25.9 km/h 34 % 0 mm
04:55 22.8 °C 6.1 °C 1001.9 hPa NNE 19.3 km/h 27.8 km/h 34 % 0 mm
05:00 22.7 °C 6.1 °C 1001.9 hPa North 11.6 km/h 18.5 km/h 34 % 0 mm
05:05 22.7 °C 6 °C 1001.6 hPa North 16.6 km/h 25.9 km/h 34 % 0 mm
05:10 22.6 °C 5.9 °C 1001.6 hPa NNE 22.5 km/h 37 km/h 34 % 0 mm
05:15 22.6 °C 5.9 °C 1001.6 hPa North 17.9 km/h 27.8 km/h 34 % 0 mm
05:20 22.5 °C 5.8 °C 1001.6 hPa NNE 18.3 km/h 27.8 km/h 34 % 0 mm
05:25 22.4 °C 5.8 °C 1001.6 hPa North 9.2 km/h 18.5 km/h 34 % 0 mm
05:30 22.3 °C 6.1 °C 1001.6 hPa North 12.7 km/h 17.7 km/h 35 % 0 mm
05:35 22.3 °C 6.1 °C 1001.6 hPa North 14.3 km/h 24.1 km/h 35 % 0 mm
05:40 22.2 °C 6 °C 1001.6 hPa North 17.5 km/h 18.5 km/h 35 % 0 mm
05:45 22.2 °C 6 °C 1001.6 hPa North 8.5 km/h 13 km/h 35 % 0 mm
05:50 22.1 °C 5.9 °C 1001.6 hPa NNE 13.7 km/h 20.9 km/h 35 % 0 mm
05:55 22 °C 5.8 °C 1001.6 hPa North 8.4 km/h 11.1 km/h 35 % 0 mm
06:00 21.9 °C 6.1 °C 1001.9 hPa North 9.7 km/h 16.7 km/h 36 % 0 mm
06:05 21.8 °C 6.1 °C 1002.3 hPa North 9.5 km/h 11.1 km/h 36 % 0 mm
06:10 21.9 °C 6.1 °C 1002.6 hPa NW 9.7 km/h 13 km/h 36 % 0 mm
06:15 21.8 °C 6.1 °C 1002.6 hPa NW 11.4 km/h 18.5 km/h 36 % 0 mm
06:20 21.8 °C 6.1 °C 1002.9 hPa WNW 15.3 km/h 19.3 km/h 36 % 0 mm
06:25 21.8 °C 6.4 °C 1002.9 hPa NNW 15.4 km/h 22.2 km/h 37 % 0 mm
06:30 21.6 °C 6.3 °C 1002.9 hPa North 12.9 km/h 25.9 km/h 37 % 0 mm
06:35 21.5 °C 6.2 °C 1002.9 hPa NNW 15 km/h 20.4 km/h 37 % 0 mm
06:40 21.3 °C 6.4 °C 1003.3 hPa North 9 km/h 20.4 km/h 38 % 0 mm
06:45 21.2 °C 6.3 °C 1003.3 hPa North 12.4 km/h 18.5 km/h 38 % 0 mm
06:50 20.9 °C 6.1 °C 1003.3 hPa North 12.6 km/h 18.5 km/h 38 % 0 mm
06:55 20.8 °C 6.3 °C 1002.9 hPa North 13.7 km/h 22.5 km/h 39 % 0 mm
07:00 20.6 °C 6.5 °C 1003.3 hPa North 12.4 km/h 14.8 km/h 40 % 0 mm
07:06 20.4 °C 6.3 °C 1003.3 hPa North 9.2 km/h 16.7 km/h 40 % 0 mm
07:11 20.3 °C 6.2 °C 1003.3 hPa North 7.9 km/h 13 km/h 40 % 0 mm
07:16 20.2 °C 6.1 °C 1003.6 hPa North 6.8 km/h 9.3 km/h 40 % 0 mm
07:21 20.1 °C 6.4 °C 1003.6 hPa NNW 8.2 km/h 9.3 km/h 41 % 0 mm
07:26 20.1 °C 6.4 °C 1003.9 hPa North 10.3 km/h 14.8 km/h 41 % 0 mm
07:31 19.9 °C 6.3 °C 1003.6 hPa North 8.7 km/h 13 km/h 41 % 0 mm
07:36 19.8 °C 6.6 °C 1003.6 hPa North 6 km/h 9.3 km/h 42 % 0 mm
07:41 19.8 °C 6.6 °C 1003.6 hPa North 6.4 km/h 9.3 km/h 42 % 0 mm
07:46 19.9 °C 6.7 °C 1003.6 hPa North 9 km/h 16.7 km/h 42 % 0 mm
07:56 20.2 °C 6.5 °C 1003.9 hPa NNW 6.9 km/h 14.8 km/h 41 % 0 mm
08:01 20.2 °C 6.6 °C 1003.9 hPa North 7.9 km/h 14.8 km/h 41 % 0 mm
08:06 20.2 °C 6.6 °C 1003.9 hPa NNW 7.4 km/h 11.1 km/h 41 % 0 mm
08:11 20.1 °C 6.8 °C 1003.9 hPa North 10.1 km/h 14.8 km/h 42 % 0 mm
08:18 20.1 °C 6.8 °C 1003.9 hPa NNW 13 km/h 13 km/h 42 % 0 mm
08:23 20.2 °C 7.2 °C 1003.9 hPa NNW 5.8 km/h 9.3 km/h 43 % 0 mm
08:28 20.2 °C 7.2 °C 1003.9 hPa North 5.1 km/h 7.4 km/h 43 % 0 mm
08:33 20.3 °C 8 °C 1003.3 hPa WSW 5.5 km/h 5.6 km/h 45 % 0 mm
08:38 20.4 °C 7.7 °C 1002.9 hPa North 8.5 km/h 11.1 km/h 44 % 0 mm
08:43 20.4 °C 7.4 °C 1002.9 hPa North 11.1 km/h 11.1 km/h 43 % 0 mm
08:48 20.6 °C 7.9 °C 1002.6 hPa North 7.4 km/h 11.1 km/h 44 % 0 mm
08:53 20.8 °C 9.1 °C 1002.6 hPa North 7.6 km/h 13 km/h 47 % 0 mm
08:58 21.1 °C 10 °C 1003.3 hPa NNW 11.6 km/h 18.5 km/h 49 % 0 mm
09:03 21.3 °C 11.1 °C 1003.6 hPa WNW 12.2 km/h 18.5 km/h 52 % 0 mm
09:08 21.1 °C 11.7 °C 1003.9 hPa WNW 10.6 km/h 18.5 km/h 55 % 0 mm
09:13 21 °C 11.9 °C 1004.3 hPa West 18 km/h 24.1 km/h 56 % 0 mm
09:18 20.9 °C 10.4 °C 1004.6 hPa West 25.1 km/h 31.5 km/h 51 % 0 mm
09:23 20.7 °C 9.6 °C 1004.6 hPa West 26.7 km/h 44.4 km/h 49 % 0 mm
09:28 20.6 °C 9.4 °C 1004.6 hPa WNW 18.5 km/h 25.9 km/h 49 % 0 mm
09:33 20.7 °C 9.6 °C 1005 hPa West 15.9 km/h 31.5 km/h 49 % 0 mm
09:38 20.5 °C 9.4 °C 1004.6 hPa NW 18.5 km/h 25.9 km/h 49 % 0 mm
09:43 20.1 °C 9 °C 1004.6 hPa WNW 24.9 km/h 29.6 km/h 49 % 0 mm
09:48 19.7 °C 8.7 °C 1004.6 hPa West 13 km/h 18.5 km/h 49 % 0 mm
09:53 19.9 °C 9.2 °C 1004.6 hPa NW 21.2 km/h 27.8 km/h 50 % 0 mm
09:58 20.5 °C 9.1 °C 1004.6 hPa WNW 17.9 km/h 22.5 km/h 48 % 0 mm
10:03 20.2 °C 9.1 °C 1004.6 hPa NW 15 km/h 18.5 km/h 49 % 0 mm
10:09 20.2 °C 9.4 °C 1004.6 hPa NNW 13.7 km/h 22.2 km/h 50 % 0 mm
10:14 20.5 °C 9.7 °C 1004.6 hPa NW 11.9 km/h 18.5 km/h 50 % 0 mm
10:19 20.8 °C 8.7 °C 1004.6 hPa NW 16.9 km/h 20.9 km/h 46 % 0 mm
10:24 20.5 °C 8.2 °C 1004.6 hPa North 22.2 km/h 22.2 km/h 45 % 0 mm
10:29 20.3 °C 8 °C 1004.6 hPa NW 23.7 km/h 31.5 km/h 45 % 0 mm
10:34 20.4 °C 8.4 °C 1004.3 hPa NW 14.8 km/h 18.5 km/h 46 % 0 mm
10:39 20.6 °C 8.6 °C 1004.3 hPa NW 16.3 km/h 22.2 km/h 46 % 0 mm
10:44 20.6 °C 7.6 °C 1004.3 hPa NW 25.6 km/h 46.3 km/h 43 % 0 mm
10:49 20.7 °C 7.7 °C 1004.3 hPa North 18.8 km/h 25.9 km/h 43 % 0 mm
10:54 21.1 °C 7.7 °C 1004.3 hPa NW 14.5 km/h 18.5 km/h 42 % 0 mm
10:59 21.4 °C 8 °C 1004.3 hPa North 18.2 km/h 27.8 km/h 42 % 0 mm
11:04 21.1 °C 7.3 °C 1004.3 hPa North 27 km/h 37 km/h 41 % 0 mm
11:09 20.8 °C 7.8 °C 1004.3 hPa WNW 20 km/h 33.3 km/h 43 % 0 mm
11:14 21.3 °C 7.9 °C 1004.3 hPa North 21.2 km/h 38.9 km/h 42 % 0 mm
11:19 21.4 °C 8 °C 1004.3 hPa WNW 25.9 km/h 42.6 km/h 42 % 0 mm
11:24 21.2 °C 8.1 °C 1004.3 hPa NW 24.1 km/h 38.9 km/h 43 % 0 mm
11:29 21.2 °C 7.7 °C 1004.6 hPa WNW 18.8 km/h 25.9 km/h 42 % 0 mm
11:34 21.4 °C 8 °C 1005 hPa North 18.2 km/h 25.9 km/h 42 % 0 mm
11:39 21.6 °C 8.2 °C 1005 hPa WNW 16.1 km/h 24.1 km/h 42 % 0 mm
11:44 22.3 °C 8.4 °C 1005 hPa North 16.3 km/h 25.9 km/h 41 % 0 mm
11:49 22.3 °C 8 °C 1005 hPa North 16.6 km/h 22.2 km/h 40 % 0 mm
11:54 21.7 °C 7.9 °C 1005 hPa West 27.4 km/h 37 km/h 41 % 0 mm
11:59 21.7 °C 8.2 °C 1005 hPa WNW 21.6 km/h 33.3 km/h 42 % 0 mm
12:04 21.5 °C 8.4 °C 1005 hPa NW 27.5 km/h 42.6 km/h 43 % 0 mm
12:09 21.9 °C 8.4 °C 1005.3 hPa North 28.2 km/h 40.7 km/h 42 % 0 mm
12:14 22 °C 8.8 °C 1005.3 hPa WNW 20.6 km/h 33.3 km/h 43 % 0 mm
12:19 21.8 °C 8.7 °C 1005 hPa NW 30.3 km/h 40.7 km/h 43 % 0 mm
12:24 21.9 °C 9.1 °C 1005.3 hPa WNW 25.3 km/h 42.6 km/h 44 % 0 mm
12:29 21.9 °C 9.1 °C 1005.3 hPa West 34.8 km/h 50 km/h 44 % 0 mm
12:34 21.7 °C 9.3 °C 1005.3 hPa West 34.9 km/h 48.1 km/h 45 % 0 mm
12:39 21.8 °C 9.4 °C 1005.3 hPa WNW 29.8 km/h 42.6 km/h 45 % 0 mm
12:44 21.8 °C 9.7 °C 1005.3 hPa WNW 25.1 km/h 38.9 km/h 46 % 0 mm
12:49 21.7 °C 9.8 °C 1005.3 hPa West 29.5 km/h 37 km/h 47 % 0 mm
12:54 21.8 °C 9.7 °C 1005.3 hPa North 33.8 km/h 48.1 km/h 46 % 0 mm
12:59 21.9 °C 9.8 °C 1005.3 hPa West 33.2 km/h 38.9 km/h 46 % 0 mm
13:04 21.7 °C 9.8 °C 1005.3 hPa WSW 27.8 km/h 38.6 km/h 47 % 0 mm
13:09 22 °C 10.2 °C 1005.6 hPa WNW 29.1 km/h 38.6 km/h 47 % 0 mm
13:14 22.1 °C 10.3 °C 1005.6 hPa WNW 33.5 km/h 38.9 km/h 47 % 0 mm
13:19 22.2 °C 10.4 °C 1005.6 hPa West 20.8 km/h 29.6 km/h 47 % 0 mm
13:24 22.1 °C 10.3 °C 1005.6 hPa WNW 26.4 km/h 35.2 km/h 47 % 0 mm
13:29 21.6 °C 10.4 °C 1006 hPa NW 20.1 km/h 25.9 km/h 49 % 0 mm
13:34 22 °C 10.5 °C 1006 hPa WNW 21.1 km/h 33.3 km/h 48 % 0 mm
13:39 21.6 °C 10.4 °C 1006 hPa NW 20.9 km/h 27.8 km/h 49 % 0 mm
13:44 21.3 °C 10.5 °C 1005.6 hPa NW 18.2 km/h 29.6 km/h 50 % 0 mm
13:49 21.4 °C 10.6 °C 1005.6 hPa NW 13.7 km/h 20.9 km/h 50 % 0 mm
13:54 22.4 °C 11.2 °C 1005.3 hPa WNW 20.3 km/h 31.5 km/h 49 % 0 mm
13:59 22.7 °C 10.8 °C 1005.6 hPa West 18.3 km/h 27.8 km/h 47 % 0 mm
14:04 22.8 °C 10.9 °C 1005.3 hPa WNW 24.9 km/h 31.5 km/h 47 % 0 mm
14:09 23.1 °C 10.5 °C 1005.3 hPa West 35.6 km/h 40.7 km/h 45 % 0 mm
14:14 23.3 °C 10.1 °C 1005.3 hPa West 30.7 km/h 44.4 km/h 43 % 0 mm
14:19 23.7 °C 10.1 °C 1005.6 hPa WNW 28.5 km/h 35.2 km/h 42 % 0 mm
14:24 23.7 °C 10.7 °C 1005.6 hPa West 19.3 km/h 27.8 km/h 44 % 0 mm
14:29 23.8 °C 10.2 °C 1005.6 hPa West 23.3 km/h 33.3 km/h 42 % 0 mm
14:34 23.4 °C 10.8 °C 1005.6 hPa North 21.9 km/h 27.8 km/h 45 % 0 mm
14:39 23.2 °C 10.3 °C 1005.6 hPa WSW 19.3 km/h 29 km/h 44 % 0 mm
14:44 22.9 °C 10.1 °C 1006 hPa West 20.3 km/h 37 km/h 44 % 0 mm
14:49 22.5 °C 10.3 °C 1005.6 hPa North 21.2 km/h 27.8 km/h 46 % 0 mm
14:54 23.2 °C 10.6 °C 1005.6 hPa West 18.5 km/h 22.2 km/h 45 % 0 mm
14:59 23.5 °C 10.6 °C 1005.6 hPa WNW 22 km/h 31.5 km/h 44 % 0 mm
15:04 23.7 °C 10.3 °C 1005.6 hPa West 28.3 km/h 37 km/h 43 % 0 mm
15:09 23.7 °C 10.1 °C 1006 hPa West 19.5 km/h 35.2 km/h 42 % 0 mm
15:14 23.3 °C 9.7 °C 1006 hPa West 35.2 km/h 42.6 km/h 42 % 0 mm
15:19 22.9 °C 10.1 °C 1005.6 hPa SW 23.2 km/h 31.5 km/h 44 % 0 mm
15:24 23.2 °C 10.3 °C 1006 hPa West 24.5 km/h 31.5 km/h 44 % 0 mm
15:29 23.3 °C 10.1 °C 1006 hPa North 24.5 km/h 35.2 km/h 43 % 0 mm
15:34 23.5 °C 10.2 °C 1006.3 hPa WSW 26.2 km/h 35.4 km/h 43 % 0 mm
15:39 23.3 °C 10.3 °C 1006.3 hPa WSW 23.2 km/h 40.7 km/h 44 % 0 mm
15:44 23.2 °C 10.3 °C 1006.3 hPa WSW 28.8 km/h 37 km/h 44 % 0 mm
15:49 22.9 °C 10.4 °C 1006.3 hPa West 18.8 km/h 24.1 km/h 45 % 0 mm
15:54 22.9 °C 10.3 °C 1006.3 hPa WSW 19.3 km/h 27.8 km/h 45 % 0 mm
15:59 22.7 °C 10.5 °C 1006.3 hPa WSW 19.5 km/h 31.5 km/h 46 % 0 mm
16:04 22.6 °C 10.4 °C 1006.7 hPa West 28.8 km/h 37 km/h 46 % 0 mm
16:09 22.2 °C 10.3 °C 1006.7 hPa West 24.6 km/h 25.9 km/h 47 % 0 mm
16:14 22.2 °C 10.6 °C 1006.7 hPa SW 23.7 km/h 24.1 km/h 48 % 0 mm
16:19 22.2 °C 10.6 °C 1006.7 hPa WSW 23 km/h 31.5 km/h 48 % 0 mm
16:24 21.7 °C 10.5 °C 1006.7 hPa WSW 23.3 km/h 42.6 km/h 49 % 0 mm
16:29 21.7 °C 10.8 °C 1006.7 hPa North 14.6 km/h 31.5 km/h 50 % 0 mm
16:34 22 °C 11.1 °C 1006.7 hPa WNW 26.6 km/h 29.6 km/h 50 % 0 mm
16:39 22.3 °C 11.1 °C 1007 hPa WSW 14.6 km/h 24.1 km/h 49 % 0 mm
16:44 22.3 °C 11.1 °C 1007 hPa West 16.4 km/h 33.3 km/h 49 % 0 mm
16:49 22.1 °C 11.2 °C 1007 hPa WSW 30.1 km/h 42.6 km/h 50 % 0 mm
16:54 22.1 °C 11.5 °C 1007 hPa SW 24.8 km/h 35.2 km/h 51 % 0 mm
16:55 22.1 °C 11.4 °C 1007 hPa WSW 25.1 km/h 37 km/h 51 % 0 mm
17:00 21.5 °C 11.5 °C 1007 hPa WSW 25.9 km/h 35.2 km/h 53 % 0 mm
17:05 21.3 °C 11.6 °C 1007 hPa WSW 19.5 km/h 31.5 km/h 54 % 0 mm
17:10 21.2 °C 11.5 °C 1007.3 hPa WSW 15.1 km/h 24.1 km/h 54 % 0 mm
17:15 20.9 °C 11.8 °C 1007.3 hPa SW 24.3 km/h 33.3 km/h 56 % 0 mm
17:20 20.4 °C 11.6 °C 1007.7 hPa WSW 29.1 km/h 38.9 km/h 57 % 0 mm
17:25 20.2 °C 11.9 °C 1007.7 hPa WSW 15.8 km/h 24.1 km/h 59 % 0 mm
17:30 19.9 °C 11.9 °C 1007.7 hPa SW 18.7 km/h 31.5 km/h 60 % 0 mm
17:35 19.5 °C 12 °C 1007.7 hPa SW 17.7 km/h 25.9 km/h 62 % 0 mm
17:40 19.1 °C 12.1 °C 1008 hPa North 17.1 km/h 25.9 km/h 64 % 0 mm
17:45 19.1 °C 12.4 °C 1008 hPa North 15 km/h 25.9 km/h 65 % 0 mm
17:50 18.9 °C 12 °C 1008 hPa North 23.8 km/h 31.5 km/h 64 % 0 mm
17:55 18.8 °C 11.8 °C 1008.4 hPa SW 19.8 km/h 33.3 km/h 64 % 0 mm
18:00 18.6 °C 11.8 °C 1008.4 hPa SSW 20.8 km/h 31.5 km/h 65 % 0 mm
18:05 18.3 °C 11.9 °C 1008.4 hPa South 22.7 km/h 46.3 km/h 66 % 0 mm
18:10 18.2 °C 11.9 °C 1008.7 hPa WSW 16.3 km/h 27.4 km/h 67 % 0 mm
18:15 18.1 °C 12.1 °C 1008.7 hPa WSW 19.3 km/h 25.9 km/h 68 % 0 mm
18:20 17.9 °C 12.2 °C 1009 hPa SSW 9.3 km/h 18.5 km/h 69 % 0 mm
18:25 17.7 °C 12.2 °C 1009 hPa North 9.8 km/h 13 km/h 70 % 0 mm
18:30 17.5 °C 12.2 °C 1009 hPa SW 19.2 km/h 38.9 km/h 71 % 0 mm
18:35 17.4 °C 12.3 °C 1009.4 hPa North 12.1 km/h 20.4 km/h 72 % 0 mm
18:40 17.4 °C 12.3 °C 1009.4 hPa WSW 17.4 km/h 22.5 km/h 72 % 0 mm
18:45 17.2 °C 12.3 °C 1009.4 hPa WSW 20.3 km/h 24.1 km/h 73 % 0 mm
18:50 17.1 °C 12.4 °C 1009.4 hPa SW 10.6 km/h 16.7 km/h 74 % 0 mm
18:55 17.1 °C 12.4 °C 1009.7 hPa SW 22.2 km/h 31.5 km/h 74 % 0 mm
19:00 16.9 °C 12.4 °C 1009.7 hPa WSW 16.6 km/h 25.9 km/h 75 % 0 mm
19:05 16.7 °C 12.4 °C 1010 hPa SW 21.4 km/h 29.6 km/h 76 % 0 mm
19:10 16.4 °C 12.6 °C 1010 hPa SW 18.7 km/h 25.9 km/h 78 % 0 mm
19:15 16.3 °C 12.6 °C 1010 hPa SSW 12.2 km/h 25.9 km/h 79 % 0 mm
19:20 15.8 °C 12.7 °C 1010.4 hPa North 18.5 km/h 27.8 km/h 82 % 0 mm
19:25 15.4 °C 12.9 °C 1010.4 hPa SW 15.8 km/h 20.4 km/h 85 % 0 mm
19:30 15.1 °C 12.9 °C 1010.4 hPa North 15.8 km/h 31.5 km/h 87 % 0 mm
19:35 14.9 °C 12.7 °C 1010.4 hPa North 20.1 km/h 29.6 km/h 87 % 0 mm
19:40 14.8 °C 12.7 °C 1010.4 hPa West 14.3 km/h 25.9 km/h 87 % 0 mm
19:45 14.8 °C 12.5 °C 1010.4 hPa WSW 19 km/h 31.5 km/h 86 % 0 mm
19:50 14.9 °C 12.4 °C 1010.7 hPa SW 12.2 km/h 14.8 km/h 85 % 0 mm
19:55 15.1 °C 12.2 °C 1010.7 hPa SW 16.1 km/h 29.6 km/h 83 % 0 mm
20:00 15.2 °C 12.1 °C 1011.1 hPa North 8.9 km/h 13 km/h 82 % 0 mm
20:05 15.2 °C 12.1 °C 1011.1 hPa North 15.1 km/h 20.4 km/h 82 % 0 mm
20:10 15.2 °C 12.1 °C 1011.1 hPa SSW 10.5 km/h 18.5 km/h 82 % 0 mm
20:15 15.2 °C 12.2 °C 1011.1 hPa North 17.2 km/h 22.2 km/h 82 % 0 mm
20:20 15.2 °C 12 °C 1011.1 hPa North 12.2 km/h 18.5 km/h 81 % 0 mm
20:25 15.3 °C 12.1 °C 1011.4 hPa North 10.8 km/h 14.8 km/h 81 % 0 mm
20:31 15.3 °C 12.1 °C 1011.4 hPa North 17.1 km/h 25.9 km/h 81 % 0 mm
20:36 15.3 °C 12.1 °C 1011.7 hPa North 20.8 km/h 25.9 km/h 81 % 0 mm
20:41 15.3 °C 12.1 °C 1011.7 hPa SW 11.4 km/h 18.5 km/h 81 % 0 mm
20:46 15.3 °C 12.1 °C 1011.7 hPa North 20 km/h 27.8 km/h 81 % 0 mm
20:51 15.3 °C 12.1 °C 1011.7 hPa WSW 12.1 km/h 16.7 km/h 81 % 0 mm
20:56 15.3 °C 12.1 °C 1011.7 hPa North 14.5 km/h 18.5 km/h 81 % 0 mm
21:01 15.3 °C 12.1 °C 1011.7 hPa SW 16.7 km/h 25.9 km/h 81 % 0 mm
21:06 15.2 °C 12 °C 1011.7 hPa North 15.8 km/h 18.5 km/h 81 % 0 mm
21:11 15.2 °C 12 °C 1012.1 hPa North 14.6 km/h 24.1 km/h 81 % 0 mm
21:16 15.3 °C 12.1 °C 1012.1 hPa North 13.5 km/h 18.5 km/h 81 % 0 mm
21:21 15.3 °C 11.8 °C 1012.1 hPa SW 14.8 km/h 24.1 km/h 80 % 0 mm
21:26 15.2 °C 11.8 °C 1012.1 hPa SW 18.8 km/h 27.8 km/h 80 % 0 mm
21:31 15.2 °C 11.7 °C 1012.4 hPa North 11.4 km/h 16.7 km/h 80 % 0 mm
21:36 15.1 °C 11.9 °C 1012.4 hPa North 18 km/h 27.8 km/h 81 % 0 mm
21:41 15.1 °C 11.9 °C 1012.4 hPa SW 17.2 km/h 22.5 km/h 81 % 0 mm
21:46 15.1 °C 11.9 °C 1012.4 hPa North 19.8 km/h 25.9 km/h 81 % 0 mm
21:51 15.1 °C 11.8 °C 1012.4 hPa North 10.6 km/h 18.5 km/h 81 % 0 mm
21:56 15 °C 11.8 °C 1012.8 hPa SW 13.8 km/h 24.1 km/h 81 % 0 mm
22:01 15 °C 11.8 °C 1012.8 hPa North 14.3 km/h 20.4 km/h 81 % 0 mm
22:06 15 °C 11.8 °C 1012.8 hPa WSW 14.6 km/h 20.4 km/h 81 % 0 mm
22:11 15.1 °C 12 °C 1012.8 hPa SW 19.5 km/h 24.1 km/h 82 % 0 mm
22:16 15.1 °C 12 °C 1012.8 hPa SW 18.3 km/h 22.2 km/h 82 % 0 mm
22:21 15.1 °C 12 °C 1012.8 hPa SW 11.7 km/h 18.5 km/h 82 % 0 mm
22:26 15 °C 11.9 °C 1013.1 hPa North 15.4 km/h 22.2 km/h 82 % 0 mm
22:31 14.9 °C 12.1 °C 1013.1 hPa North 15 km/h 27.8 km/h 83 % 0 mm
22:36 14.9 °C 12 °C 1013.1 hPa North 15 km/h 22.2 km/h 83 % 0 mm
22:41 14.9 °C 12 °C 1013.1 hPa SW 14.6 km/h 20.9 km/h 83 % 0 mm
22:46 14.9 °C 12 °C 1013.1 hPa North 10.3 km/h 18.5 km/h 83 % 0 mm
22:51 14.8 °C 12.1 °C 1013.1 hPa North 8.5 km/h 16.7 km/h 84 % 0 mm
22:56 14.7 °C 12.2 °C 1013.1 hPa North 18.7 km/h 24.1 km/h 85 % 0 mm
23:01 14.6 °C 12.1 °C 1013.1 hPa North 9 km/h 16.7 km/h 85 % 0 mm
23:06 14.6 °C 12.2 °C 1013.1 hPa SW 11.9 km/h 16.7 km/h 86 % 0 mm
23:11 14.6 °C 12.2 °C 1013.1 hPa SW 13.5 km/h 18.5 km/h 86 % 0 mm
23:16 14.6 °C 12.4 °C 1013.1 hPa North 13.2 km/h 18.5 km/h 87 % 0 mm
23:21 14.6 °C 12.4 °C 1013.1 hPa North 10.6 km/h 14.8 km/h 87 % 0 mm
23:26 14.6 °C 12.4 °C 1013.1 hPa SSW 12.2 km/h 16.7 km/h 87 % 0 mm
23:31 14.6 °C 12.4 °C 1013.1 hPa SW 14.8 km/h 18.5 km/h 87 % 0 mm
23:36 14.6 °C 12.6 °C 1013.1 hPa SW 8.7 km/h 13 km/h 88 % 0 mm
23:41 14.5 °C 12.6 °C 1013.1 hPa SSW 10.8 km/h 20.9 km/h 88 % 0 mm
23:46 14.4 °C 12.5 °C 1013.1 hPa SW 15.8 km/h 22.2 km/h 88 % 0 mm
23:51 14.4 °C 12.5 °C 1013.4 hPa SSW 11.4 km/h 16.7 km/h 88 % 0 mm
23:56 14.5 °C 12.6 °C 1013.4 hPa SSW 15.9 km/h 18.5 km/h 88 % 0 mm
Ararat Weather
Compliments of Weather Underground - 2.25 mb
Click here to send mail.


ABOUT

Live weather data from Ararat, Victoria, Australia, 3377
Data uploaded from Cumulus every 5 minutes to Weather Underground.
This site then downloads the raw data for formatting and display.
Metric and imperial data can be displayed. Graphs and historical data available.
Includes Sun and Moon times and rain image live from BOM.

Check out Ararat Weather on Facebook, Twitter and Google +

Help support ongoing costs by checking out the ads





Follow @AraratWeather